Capitol Logistics 1171


EBLG
Liège Airport
Liege, BE
EETN
Tallinn Airport
Tallinn, EE

Route Details

Aircraft Information
Primary: Boeing 767-300BDSF
Backup: Not Available
Route Data
Distance: 849nm
Sched. Duration: 2h 00m
Avg. Duration: 2h 21m (+22m)
Times Flown: 10
Recm'd Route: LNO5E LNO M170 NVO UZ706 PIXID GESKA P605 MALIV M611 KOLJA M611 LONSA
Planned Altitude: 35,000ft
Origin Wx: EBLG 160820Z 18006KT 9999 BKN038 M00/M03 Q1026 NOSIG
Dest. Wx: EETN 160820Z 10008KT 5000 SN OVC022 M09/M11 Q1017 R08/490395 TEMPO 3000
Notes:

Financial History
Total Freight: 986,504lbs
Average Load: 98,650lbs/flt
Fuel Used: 253,685lbs
Avg. Fuel Used: 25,369lbs/flt
Fuel Expense: $281,590
Avg. Fuel Expense: $28,159
Avg. Fuel Cost: $1.11/lbs
Total Gross Income: $1,473,235
Pilot Pay: $1,970
Total Expenses: $155,976
Total Revenue: $1,030,387
Average Revenue: $147,323.53